Terminal Aerodrome Forecast
Issued by NWS

Current Version | Previous Version | Graphics & Text | Print | Product List | Glossary On
Versions: 1 2 3 4 5 6 7 8 9 10 11 12 13 14
000
FTUS41 KRNK 241720
TAFLWB
TAF
KLWB 241720Z 2418/2518 VRB05KT P6SM SCT050
     FM242300 00000KT P6SM SCT060
     FM250900 00000KT P6SM BKN060
     FM251300 VRB05KT P6SM BKN060=

USA.gov is the U.S. government's official web portal to all federal, state and local government web resources and services.